sensor_id;sensor_type;location;lat;lon;timestamp;pressure;altitude;pressure_sealevel;temperature;humidity
62791;BME280;48830;53.426;10.300;2023-01-29T00:00:50;102649.94;;;3.13;100.00
62791;BME280;48830;53.426;10.300;2023-01-29T00:03:15;102659.00;;;3.22;100.00
62791;BME280;48830;53.426;10.300;2023-01-29T00:05:41;102656.13;;;3.17;100.00
62791;BME280;48830;53.426;10.300;2023-01-29T00:08:06;102659.69;;;3.19;100.00
62791;BME280;48830;53.426;10.300;2023-01-29T00:10:32;102663.44;;;3.24;100.00
62791;BME280;48830;53.426;10.300;2023-01-29T00:12:57;102660.13;;;3.25;100.00
62791;BME280;48830;53.426;10.300;2023-01-29T00:15:23;102652.59;;;3.27;100.00
62791;BME280;48830;53.426;10.300;2023-01-29T00:17:48;102655.03;;;3.25;100.00
62791;BME280;48830;53.426;10.300;2023-01-29T00:20:14;102647.31;;;3.24;100.00
62791;BME280;48830;53.426;10.300;2023-01-29T00:22:39;102643.66;;;3.20;100.00
62791;BME280;48830;53.426;10.300;2023-01-29T00:25:05;102636.69;;;3.18;100.00
62791;BME280;48830;53.426;10.300;2023-01-29T00:27:31;102628.72;;;3.13;100.00
62791;BME280;48830;53.426;10.300;2023-01-29T00:29:56;102622.63;;;3.11;100.00
62791;BME280;48830;53.426;10.300;2023-01-29T00:32:40;102620.94;;;3.00;100.00
62791;BME280;48830;53.426;10.300;2023-01-29T00:35:07;102615.44;;;3.05;100.00
62791;BME280;48830;53.426;10.300;2023-01-29T00:37:33;102617.19;;;3.06;100.00
62791;BME280;48830;53.426;10.300;2023-01-29T00:39:59;102610.25;;;3.04;100.00
62791;BME280;48830;53.426;10.300;2023-01-29T00:42:25;102609.56;;;3.06;100.00
62791;BME280;48830;53.426;10.300;2023-01-29T00:45:10;102610.34;;;3.05;100.00
62791;BME280;48830;53.426;10.300;2023-01-29T00:47:36;102604.50;;;3.06;100.00
62791;BME280;48830;53.426;10.300;2023-01-29T00:50:04;102602.72;;;3.05;100.00
62791;BME280;48830;53.426;10.300;2023-01-29T00:52:31;102587.84;;;3.10;100.00
62791;BME280;48830;53.426;10.300;2023-01-29T00:54:58;102597.78;;;3.07;100.00
62791;BME280;48830;53.426;10.300;2023-01-29T00:57:25;102597.34;;;3.12;100.00
62791;BME280;48830;53.426;10.300;2023-01-29T00:59:52;102600.00;;;3.14;100.00
62791;BME280;48830;53.426;10.300;2023-01-29T01:02:19;102607.09;;;3.18;100.00
62791;BME280;48830;53.426;10.300;2023-01-29T01:05:04;102600.88;;;3.14;100.00
62791;BME280;48830;53.426;10.300;2023-01-29T01:07:34;102598.44;;;3.16;100.00
62791;BME280;48830;53.426;10.300;2023-01-29T01:10:00;102609.91;;;3.11;100.00
62791;BME280;48830;53.426;10.300;2023-01-29T01:12:44;102607.09;;;3.18;100.00
62791;BME280;48830;53.426;10.300;2023-01-29T01:15:10;102607.63;;;3.14;100.00
62791;BME280;48830;53.426;10.300;2023-01-29T01:17:35;102607.97;;;3.19;100.00
62791;BME280;48830;53.426;10.300;2023-01-29T01:20:01;102615.69;;;3.20;100.00
62791;BME280;48830;53.426;10.300;2023-01-29T01:22:27;102611.50;;;3.21;100.00
62791;BME280;48830;53.426;10.300;2023-01-29T01:24:52;102619.03;;;3.19;100.00
62791;BME280;48830;53.426;10.300;2023-01-29T01:27:18;102614.16;;;3.22;100.00
62791;BME280;48830;53.426;10.300;2023-01-29T01:29:44;102617.69;;;3.24;100.00
62791;BME280;48830;53.426;10.300;2023-01-29T01:32:11;102603.97;;;3.22;100.00
62791;BME280;48830;53.426;10.300;2023-01-29T01:34:36;102598.44;;;3.16;100.00
62791;BME280;48830;53.426;10.300;2023-01-29T01:37:02;102603.41;;;3.03;100.00
62791;BME280;48830;53.426;10.300;2023-01-29T01:39:28;102599.75;;;3.11;100.00
62791;BME280;48830;53.426;10.300;2023-01-29T01:41:53;102602.00;;;3.18;100.00
62791;BME280;48830;53.426;10.300;2023-01-29T01:47:16;102604.84;;;3.11;100.00
62791;BME280;48830;53.426;10.300;2023-01-29T01:49:45;102607.09;;;3.18;100.00
62791;BME280;48830;53.426;10.300;2023-01-29T01:52:12;102614.72;;;3.18;100.00
62791;BME280;48830;53.426;10.300;2023-01-29T01:54:38;102611.59;;;3.22;100.00
62791;BME280;48830;53.426;10.300;2023-01-29T01:57:10;102606.22;;;3.18;100.00
62791;BME280;48830;53.426;10.300;2023-01-29T01:59:42;102606.75;;;3.13;100.00
62791;BME280;48830;53.426;10.300;2023-01-29T02:02:10;102603.53;;;3.16;100.00
62791;BME280;48830;53.426;10.300;2023-01-29T02:04:54;102598.69;;;3.19;100.00
62791;BME280;48830;53.426;10.300;2023-01-29T02:07:43;102601.13;;;3.18;100.00
62791;BME280;48830;53.426;10.300;2023-01-29T02:10:31;102601.13;;;3.18;100.00
62791;BME280;48830;53.426;10.300;2023-01-29T02:13:03;102592.94;;;3.22;100.00
62791;BME280;48830;53.426;10.300;2023-01-29T02:15:29;102596.34;;;3.22;100.00
62791;BME280;48830;53.426;10.300;2023-01-29T02:17:55;102603.00;;;3.20;100.00
62791;BME280;48830;53.426;10.300;2023-01-29T02:20:24;102598.34;;;3.26;100.00
62791;BME280;48830;53.426;10.300;2023-01-29T02:26:08;102591.75;;;3.28;100.00
62791;BME280;48830;53.426;10.300;2023-01-29T02:29:01;102584.66;;;3.24;100.00
62791;BME280;48830;53.426;10.300;2023-01-29T02:32:07;102581.69;;;3.30;100.00
62791;BME280;48830;53.426;10.300;2023-01-29T02:34:53;102579.03;;;3.28;100.00
62791;BME280;48830;53.426;10.300;2023-01-29T02:37:53;102579.34;;;3.33;100.00
62791;BME280;48830;53.426;10.300;2023-01-29T02:40:28;102581.44;;;3.27;100.00
62791;BME280;48830;53.426;10.300;2023-01-29T02:48:07;102578.34;;;3.19;100.00
62791;BME280;48830;53.426;10.300;2023-01-29T02:50:44;102576.03;;;3.22;100.00
62791;BME280;48830;53.426;10.300;2023-01-29T02:55:48;102575.03;;;3.20;100.00
62791;BME280;48830;53.426;10.300;2023-01-29T02:58:26;102567.66;;;3.23;100.00
62791;BME280;48830;53.426;10.300;2023-01-29T03:00:58;102564.00;;;3.20;100.00
62791;BME280;48830;53.426;10.300;2023-01-29T03:03:30;102561.56;;;3.21;100.00
62791;BME280;48830;53.426;10.300;2023-01-29T03:08:50;102553.16;;;3.22;100.00
62791;BME280;48830;53.426;10.300;2023-01-29T03:11:19;102548.31;;;3.25;100.00
62791;BME280;48830;53.426;10.300;2023-01-29T03:13:56;102535.72;;;3.27;100.00
62791;BME280;48830;53.426;10.300;2023-01-29T03:16:50;102535.94;;;3.18;100.00
62791;BME280;48830;53.426;10.300;2023-01-29T03:21:50;102518.81;;;3.15;100.00
62791;BME280;48830;53.426;10.300;2023-01-29T03:24:46;102523.34;;;3.20;100.00
62791;BME280;48830;53.426;10.300;2023-01-29T03:27:36;102511.75;;;3.23;100.00
62791;BME280;48830;53.426;10.300;2023-01-29T03:30:27;102512.50;;;3.22;100.00
62791;BME280;48830;53.426;10.300;2023-01-29T03:33:29;102510.75;;;3.21;100.00
62791;BME280;48830;53.426;10.300;2023-01-29T03:36:02;102508.88;;;3.19;100.00
62791;BME280;48830;53.426;10.300;2023-01-29T03:38:29;102502.34;;;3.22;100.00
62791;BME280;48830;53.426;10.300;2023-01-29T03:41:30;102499.94;;;3.24;100.00
62791;BME280;48830;53.426;10.300;2023-01-29T03:47:07;102500.13;;;3.27;100.00
62791;BME280;48830;53.426;10.300;2023-01-29T03:49:58;102508.97;;;3.20;100.00
62791;BME280;48830;53.426;10.300;2023-01-29T03:52:53;102498.13;;;3.23;100.00
62791;BME280;48830;53.426;10.300;2023-01-29T03:55:38;102493.97;;;3.23;100.00
62791;BME280;48830;53.426;10.300;2023-01-29T04:00:44;102503.22;;;3.23;100.00
62791;BME280;48830;53.426;10.300;2023-01-29T04:03:19;102492.50;;;3.15;100.00
62791;BME280;48830;53.426;10.300;2023-01-29T04:08:33;102486.34;;;3.23;100.00
62791;BME280;48830;53.426;10.300;2023-01-29T04:11:07;102488.97;;;3.25;100.00
62791;BME280;48830;53.426;10.300;2023-01-29T04:13:35;102489.97;;;3.27;100.00
62791;BME280;48830;53.426;10.300;2023-01-29T04:16:05;102480.25;;;3.21;100.00
62791;BME280;48830;53.426;10.300;2023-01-29T04:19:08;102475.59;;;3.27;100.00
62791;BME280;48830;53.426;10.300;2023-01-29T04:21:38;102460.78;;;3.22;100.00
62791;BME280;48830;53.426;10.300;2023-01-29T04:24:06;102464.34;;;3.24;100.00
62791;BME280;48830;53.426;10.300;2023-01-29T04:29:34;102467.44;;;3.20;100.00
62791;BME280;48830;53.426;10.300;2023-01-29T04:37:41;102463.56;;;3.25;100.00
62791;BME280;48830;53.426;10.300;2023-01-29T04:40:19;102468.09;;;3.17;100.00
62791;BME280;48830;53.426;10.300;2023-01-29T04:42:57;102472.50;;;3.31;100.00
62791;BME280;48830;53.426;10.300;2023-01-29T04:46:01;102465.66;;;3.30;100.00
62791;BME280;48830;53.426;10.300;2023-01-29T04:56:35;102480.91;;;3.30;100.00
62791;BME280;48830;53.426;10.300;2023-01-29T04:59:06;102486.09;;;3.32;100.00
62791;BME280;48830;53.426;10.300;2023-01-29T05:01:34;102499.03;;;3.23;100.00
62791;BME280;48830;53.426;10.300;2023-01-29T05:04:05;102492.63;;;3.28;100.00
62791;BME280;48830;53.426;10.300;2023-01-29T05:06:32;102488.44;;;3.29;100.00
62791;BME280;48830;53.426;10.300;2023-01-29T05:08:59;102498.38;;;3.26;100.00
62791;BME280;48830;53.426;10.300;2023-01-29T05:11:26;102498.16;;;3.34;100.00
62791;BME280;48830;53.426;10.300;2023-01-29T05:13:52;102492.41;;;3.37;100.00
62791;BME280;48830;53.426;10.300;2023-01-29T05:16:24;102486.34;;;3.35;100.00
62791;BME280;48830;53.426;10.300;2023-01-29T05:18:50;102492.63;;;3.28;100.00
62791;BME280;48830;53.426;10.300;2023-01-29T05:21:16;102494.94;;;3.25;100.00
62791;BME280;48830;53.426;10.300;2023-01-29T05:23:43;102480.91;;;3.19;100.00
62791;BME280;48830;53.426;10.300;2023-01-29T05:26:19;102480.34;;;3.23;100.00
62791;BME280;48830;53.426;10.300;2023-01-29T05:29:04;102467.88;;;3.14;100.00
62791;BME280;48830;53.426;10.300;2023-01-29T05:31:29;102472.09;;;3.13;100.00
62791;BME280;48830;53.426;10.300;2023-01-29T05:33:55;102463.91;;;3.18;100.00
62791;BME280;48830;53.426;10.300;2023-01-29T05:36:20;102470.41;;;3.14;100.00
62791;BME280;48830;53.426;10.300;2023-01-29T05:38:46;102470.63;;;3.17;100.00
62791;BME280;48830;53.426;10.300;2023-01-29T05:41:11;102464.47;;;3.13;100.00
62791;BME280;48830;53.426;10.300;2023-01-29T05:43:36;102480.34;;;3.11;100.00
62791;BME280;48830;53.426;10.300;2023-01-29T05:46:02;102476.47;;;3.16;100.00
62791;BME280;48830;53.426;10.300;2023-01-29T05:48:28;102470.75;;;3.19;100.00
62791;BME280;48830;53.426;10.300;2023-01-29T05:51:02;102459.72;;;3.18;100.00
62791;BME280;48830;53.426;10.300;2023-01-29T05:53:29;102456.16;;;3.16;100.00
62791;BME280;48830;53.426;10.300;2023-01-29T05:55:55;102459.72;;;3.18;100.00
62791;BME280;48830;53.426;10.300;2023-01-29T05:58:23;102460.78;;;3.22;100.00
62791;BME280;48830;53.426;10.300;2023-01-29T06:00:48;102456.59;;;3.22;100.00
62791;BME280;48830;53.426;10.300;2023-01-29T06:03:14;102461.25;;;3.16;100.00
62791;BME280;48830;53.426;10.300;2023-01-29T06:05:39;102470.53;;;3.15;100.00
62791;BME280;48830;53.426;10.300;2023-01-29T06:08:05;102468.09;;;3.17;100.00
62791;BME280;48830;53.426;10.300;2023-01-29T06:10:31;102491.09;;;3.19;100.00
62791;BME280;48830;53.426;10.300;2023-01-29T06:12:57;102490.19;;;3.18;100.00
62791;BME280;48830;53.426;10.300;2023-01-29T06:15:22;102494.72;;;3.22;100.00
62791;BME280;48830;53.426;10.300;2023-01-29T06:17:49;102506.00;;;3.26;100.00
62791;BME280;48830;53.426;10.300;2023-01-29T06:20:14;102481.81;;;3.19;100.00
62791;BME280;48830;53.426;10.300;2023-01-29T06:22:40;102480.78;;;3.17;100.00
62791;BME280;48830;53.426;10.300;2023-01-29T06:25:06;102468.88;;;3.16;100.00
62791;BME280;48830;53.426;10.300;2023-01-29T06:27:32;102464.75;;;3.06;100.00
62791;BME280;48830;53.426;10.300;2023-01-29T06:29:57;102461.94;;;3.02;100.00
62791;BME280;48830;53.426;10.300;2023-01-29T06:32:23;102440.91;;;3.04;100.00
62791;BME280;48830;53.426;10.300;2023-01-29T06:34:48;102432.53;;;2.94;100.00
62791;BME280;48830;53.426;10.300;2023-01-29T06:37:13;102441.38;;;2.99;100.00
62791;BME280;48830;53.426;10.300;2023-01-29T06:39:39;102444.44;;;2.95;100.00
62791;BME280;48830;53.426;10.300;2023-01-29T06:42:04;102438.81;;;2.99;100.00
62791;BME280;48830;53.426;10.300;2023-01-29T06:44:30;102450.66;;;2.86;100.00
62791;BME280;48830;53.426;10.300;2023-01-29T06:46:55;102443.47;;;2.93;100.00
62791;BME280;48830;53.426;10.300;2023-01-29T06:49:20;102435.41;;;2.86;100.00
62791;BME280;48830;53.426;10.300;2023-01-29T06:51:46;102420.81;;;2.84;100.00
62791;BME280;48830;53.426;10.300;2023-01-29T06:54:11;102430.09;;;2.83;100.00
62791;BME280;48830;53.426;10.300;2023-01-29T06:56:37;102427.00;;;2.87;100.00
62791;BME280;48830;53.426;10.300;2023-01-29T06:59:02;102412.84;;;2.79;100.00
62791;BME280;48830;53.426;10.300;2023-01-29T07:01:28;102409.09;;;2.74;100.00
62791;BME280;48830;53.426;10.300;2023-01-29T07:03:53;102411.63;;;2.74;100.00
62791;BME280;48830;53.426;10.300;2023-01-29T07:06:19;102405.81;;;2.75;100.00
62791;BME280;48830;53.426;10.300;2023-01-29T07:08:44;102402.94;;;2.71;100.00
62791;BME280;48830;53.426;10.300;2023-01-29T07:11:10;102406.25;;;2.70;100.00
62791;BME280;48830;53.426;10.300;2023-01-29T07:13:36;102410.66;;;2.72;100.00
62791;BME280;48830;53.426;10.300;2023-01-29T07:16:03;102413.72;;;2.68;100.00
62791;BME280;48830;53.426;10.300;2023-01-29T07:18:29;102404.78;;;2.73;100.00
62791;BME280;48830;53.426;10.300;2023-01-29T07:20:55;102404.16;;;2.64;100.00
62791;BME280;48830;53.426;10.300;2023-01-29T07:23:22;102403.72;;;2.70;100.00
62791;BME280;48830;53.426;10.300;2023-01-29T07:25:47;102406.88;;;2.67;100.00
62791;BME280;48830;53.426;10.300;2023-01-29T07:28:16;102407.44;;;2.63;100.00
62791;BME280;48830;53.426;10.300;2023-01-29T07:30:42;102409.53;;;2.69;100.00
62791;BME280;48830;53.426;10.300;2023-01-29T07:33:08;102409.88;;;2.73;100.00
62791;BME280;48830;53.426;10.300;2023-01-29T07:35:39;102401.28;;;2.71;100.00
62791;BME280;48830;53.426;10.300;2023-01-29T07:38:05;102404.78;;;2.73;100.00
62791;BME280;48830;53.426;10.300;2023-01-29T07:40:31;102403.91;;;2.84;100.00
62791;BME280;48830;53.426;10.300;2023-01-29T07:43:01;102401.38;;;2.84;100.00
62791;BME280;48830;53.426;10.300;2023-01-29T07:45:28;102401.38;;;2.84;100.00
62791;BME280;48830;53.426;10.300;2023-01-29T07:47:54;102384.38;;;2.83;100.00
62791;BME280;48830;53.426;10.300;2023-01-29T07:50:24;102371.78;;;2.85;100.00
62791;BME280;48830;53.426;10.300;2023-01-29T07:52:50;102365.63;;;2.81;100.00
62791;BME280;48830;53.426;10.300;2023-01-29T07:55:16;102370.47;;;2.78;100.00
62791;BME280;48830;53.426;10.300;2023-01-29T07:57:42;102380.16;;;2.96;100.00
62791;BME280;48830;53.426;10.300;2023-01-29T08:00:08;102374.88;;;2.93;100.00
62791;BME280;48830;53.426;10.300;2023-01-29T08:02:37;102376.84;;;2.85;100.00
62791;BME280;48830;53.426;10.300;2023-01-29T08:05:03;102379.09;;;2.92;100.00
62791;BME280;48830;53.426;10.300;2023-01-29T08:07:29;102380.41;;;2.87;100.00
62791;BME280;48830;53.426;10.300;2023-01-29T08:09:55;102369.72;;;2.91;100.00
62791;BME280;48830;53.426;10.300;2023-01-29T08:12:20;102363.94;;;2.94;100.00
62791;BME280;48830;53.426;10.300;2023-01-29T08:14:45;102353.91;;;3.07;100.00
62791;BME280;48830;53.426;10.300;2023-01-29T08:17:12;102355.66;;;3.08;100.00
62791;BME280;48830;53.426;10.300;2023-01-29T08:19:37;102362.28;;;3.18;100.00
62791;BME280;48830;53.426;10.300;2023-01-29T08:22:03;102359.41;;;3.13;100.00
62791;BME280;48830;53.426;10.300;2023-01-29T08:24:29;102365.47;;;3.15;100.00
62791;BME280;48830;53.426;10.300;2023-01-29T08:26:55;102360.16;;;3.12;100.00
62791;BME280;48830;53.426;10.300;2023-01-29T08:29:20;102360.72;;;3.20;100.00
62791;BME280;48830;53.426;10.300;2023-01-29T08:31:45;102366.16;;;3.12;100.00
62791;BME280;48830;53.426;10.300;2023-01-29T08:34:11;102365.81;;;3.20;100.00
62791;BME280;48830;53.426;10.300;2023-01-29T08:36:36;102367.34;;;3.29;100.00
62791;BME280;48830;53.426;10.300;2023-01-29T08:39:02;102373.53;;;3.09;100.00
62791;BME280;48830;53.426;10.300;2023-01-29T08:41:27;102369.34;;;3.10;100.00
62791;BME280;48830;53.426;10.300;2023-01-29T08:43:53;102372.00;;;3.23;100.00
62791;BME280;48830;53.426;10.300;2023-01-29T08:46:18;102370.19;;;3.22;100.00
62791;BME280;48830;53.426;10.300;2023-01-29T08:48:47;102378.84;;;3.24;100.00
62791;BME280;48830;53.426;10.300;2023-01-29T08:51:12;102375.06;;;3.31;100.00
62791;BME280;48830;53.426;10.300;2023-01-29T08:53:38;102367.75;;;3.35;100.00
62791;BME280;48830;53.426;10.300;2023-01-29T08:56:03;102369.09;;;3.30;100.00
62791;BME280;48830;53.426;10.300;2023-01-29T08:58:29;102368.31;;;3.31;100.00
62791;BME280;48830;53.426;10.300;2023-01-29T09:00:54;102367.41;;;3.42;100.00
62791;BME280;48830;53.426;10.300;2023-01-29T09:03:20;102371.69;;;3.43;100.00
62791;BME280;48830;53.426;10.300;2023-01-29T09:05:45;102375.28;;;3.34;100.00
62791;BME280;48830;53.426;10.300;2023-01-29T09:08:11;102377.44;;;3.53;100.00
62791;BME280;48830;53.426;10.300;2023-01-29T09:10:37;102370.13;;;3.57;100.00
62791;BME280;48830;53.426;10.300;2023-01-29T09:13:02;102371.03;;;3.46;100.00
62791;BME280;48830;53.426;10.300;2023-01-29T09:15:28;102368.91;;;3.52;100.00
62791;BME280;48830;53.426;10.300;2023-01-29T09:17:53;102369.56;;;3.50;100.00
62791;BME280;48830;53.426;10.300;2023-01-29T09:20:19;102377.66;;;3.56;100.00
62791;BME280;48830;53.426;10.300;2023-01-29T09:22:45;102362.63;;;3.47;100.00
62791;BME280;48830;53.426;10.300;2023-01-29T09:25:11;102359.94;;;3.57;100.00
62791;BME280;48830;53.426;10.300;2023-01-29T09:27:37;102358.44;;;3.48;100.00
62791;BME280;48830;53.426;10.300;2023-01-29T09:30:05;102361.06;;;3.61;100.00
62791;BME280;48830;53.426;10.300;2023-01-29T09:32:33;102351.84;;;3.63;100.00
62791;BME280;48830;53.426;10.300;2023-01-29T09:34:58;102347.03;;;3.79;100.00
62791;BME280;48830;53.426;10.300;2023-01-29T09:37:24;102343.31;;;3.74;100.00
62791;BME280;48830;53.426;10.300;2023-01-29T09:39:49;102337.09;;;3.82;100.00
62791;BME280;48830;53.426;10.300;2023-01-29T09:42:22;102340.44;;;3.69;100.00
62791;BME280;48830;53.426;10.300;2023-01-29T09:47:16;102325.19;;;3.94;100.00
62791;BME280;48830;53.426;10.300;2023-01-29T09:49:46;102328.13;;;4.01;100.00
62791;BME280;48830;53.426;10.300;2023-01-29T09:52:25;102330.88;;;4.04;100.00
62791;BME280;48830;53.426;10.300;2023-01-29T09:57:49;102318.03;;;4.02;100.00
62791;BME280;48830;53.426;10.300;2023-01-29T10:00:22;102317.06;;;4.00;100.00
62791;BME280;48830;53.426;10.300;2023-01-29T10:02:56;102311.69;;;4.09;100.00
62791;BME280;48830;53.426;10.300;2023-01-29T10:08:23;102296.72;;;4.00;100.00
62791;BME280;48830;53.426;10.300;2023-01-29T10:13:44;102274.03;;;4.16;100.00
62791;BME280;48830;53.426;10.300;2023-01-29T10:20:00;102268.69;;;4.25;100.00
62791;BME280;48830;53.426;10.300;2023-01-29T10:25:13;102276.00;;;4.34;100.00
62791;BME280;48830;53.426;10.300;2023-01-29T10:27:43;102265.16;;;4.36;100.00
62791;BME280;48830;53.426;10.300;2023-01-29T10:32:46;102255.94;;;4.25;100.00
62791;BME280;48830;53.426;10.300;2023-01-29T10:35:21;102254.47;;;4.29;100.00
62791;BME280;48830;53.426;10.300;2023-01-29T10:37:51;102255.25;;;4.28;100.00
62791;BME280;48830;53.426;10.300;2023-01-29T10:40:21;102238.41;;;4.30;100.00
62791;BME280;48830;53.426;10.300;2023-01-29T10:50:49;102221.19;;;4.26;100.00
62791;BME280;48830;53.426;10.300;2023-01-29T11:00:55;102216.97;;;4.39;100.00
62791;BME280;48830;53.426;10.300;2023-01-29T11:06:20;102212.47;;;4.48;100.00
62791;BME280;48830;53.426;10.300;2023-01-29T11:11:45;102210.13;;;4.38;100.00
62791;BME280;48830;53.426;10.300;2023-01-29T11:14:27;102206.41;;;4.33;100.00
62791;BME280;48830;53.426;10.300;2023-01-29T11:16:54;102214.25;;;4.36;100.00
62791;BME280;48830;53.426;10.300;2023-01-29T11:19:36;102209.13;;;4.50;100.00
62791;BME280;48830;53.426;10.300;2023-01-29T11:22:02;102212.56;;;4.37;100.00
62791;BME280;48830;53.426;10.300;2023-01-29T11:24:28;102200.91;;;4.40;100.00
62791;BME280;48830;53.426;10.300;2023-01-29T11:26:57;102209.81;;;4.34;100.00
62791;BME280;48830;53.426;10.300;2023-01-29T11:31:52;102205.59;;;4.47;100.00
62791;BME280;48830;53.426;10.300;2023-01-29T11:34:22;102205.41;;;4.44;100.00
62791;BME280;48830;53.426;10.300;2023-01-29T11:37:15;102209.91;;;4.35;100.00
62791;BME280;48830;53.426;10.300;2023-01-29T11:39:45;102194.84;;;4.38;100.00
62791;BME280;48830;53.426;10.300;2023-01-29T11:42:19;102194.84;;;4.38;100.00
62791;BME280;48830;53.426;10.300;2023-01-29T11:44:45;102183.56;;;4.35;100.00
62791;BME280;48830;53.426;10.300;2023-01-29T11:49:44;102167.03;;;4.41;100.00
62791;BME280;48830;53.426;10.300;2023-01-29T11:52:12;102164.25;;;4.52;100.00
62791;BME280;48830;53.426;10.300;2023-01-29T11:54:48;102170.56;;;4.43;100.00
62791;BME280;48830;53.426;10.300;2023-01-29T11:57:23;102159.88;;;4.49;100.00
62791;BME280;48830;53.426;10.300;2023-01-29T11:59:52;102162.31;;;4.47;100.00
62791;BME280;48830;53.426;10.300;2023-01-29T12:04:47;102151.16;;;4.45;100.00
62791;BME280;48830;53.426;10.300;2023-01-29T12:07:15;102143.94;;;4.38;100.00
62791;BME280;48830;53.426;10.300;2023-01-29T12:09:48;102141.06;;;4.47;100.00
62791;BME280;48830;53.426;10.300;2023-01-29T12:12:26;102145.66;;;4.53;100.00
62791;BME280;48830;53.426;10.300;2023-01-29T12:15:15;102138.69;;;4.50;100.00
62791;BME280;48830;53.426;10.300;2023-01-29T12:20:44;102132.94;;;4.39;100.00
62791;BME280;48830;53.426;10.300;2023-01-29T12:23:13;102129.09;;;4.59;100.00
62791;BME280;48830;53.426;10.300;2023-01-29T12:26:03;102112.72;;;4.56;100.00
62791;BME280;48830;53.426;10.300;2023-01-29T12:28:39;102119.56;;;4.57;100.00
62791;BME280;48830;53.426;10.300;2023-01-29T12:31:18;102108.66;;;4.44;100.00
62791;BME280;48830;53.426;10.300;2023-01-29T12:34:11;102106.47;;;4.51;100.00
62791;BME280;48830;53.426;10.300;2023-01-29T12:36:50;102113.16;;;4.48;100.00
62791;BME280;48830;53.426;10.300;2023-01-29T12:39:20;102097.97;;;4.50;100.00
62791;BME280;48830;53.426;10.300;2023-01-29T12:41:59;102096.06;;;4.61;100.00
62791;BME280;48830;53.426;10.300;2023-01-29T12:44:39;102086.59;;;4.73;100.00
62791;BME280;48830;53.426;10.300;2023-01-29T12:47:14;102077.13;;;4.70;100.00
62791;BME280;48830;53.426;10.300;2023-01-29T12:49:44;102082.38;;;4.59;100.00
62791;BME280;48830;53.426;10.300;2023-01-29T12:52:18;102073.13;;;4.74;100.00
62791;BME280;48830;53.426;10.300;2023-01-29T12:55:05;102065.44;;;4.59;100.00
62791;BME280;48830;53.426;10.300;2023-01-29T12:57:51;102060.97;;;4.70;100.00
62791;BME280;48830;53.426;10.300;2023-01-29T13:00:21;102064.84;;;4.63;100.00
62791;BME280;48830;53.426;10.300;2023-01-29T13:02:56;102051.94;;;4.75;100.00
62791;BME280;48830;53.426;10.300;2023-01-29T13:05:43;102055.16;;;4.72;100.00
62791;BME280;48830;53.426;10.300;2023-01-29T13:08:29;102044.47;;;4.78;100.00
62791;BME280;48830;53.426;10.300;2023-01-29T13:11:00;102032.69;;;4.65;100.00
62791;BME280;48830;53.426;10.300;2023-01-29T13:13:35;102037.06;;;4.68;100.00
62791;BME280;48830;53.426;10.300;2023-01-29T13:16:10;102026.78;;;4.66;100.00
62791;BME280;48830;53.426;10.300;2023-01-29T13:18:46;102022.06;;;4.87;100.00
62791;BME280;48830;53.426;10.300;2023-01-29T13:21:21;102015.16;;;4.85;100.00
62791;BME280;48830;53.426;10.300;2023-01-29T13:23:51;102013.47;;;4.85;100.00
62791;BME280;48830;53.426;10.300;2023-01-29T13:26:19;101994.31;;;4.77;100.00
62791;BME280;48830;53.426;10.300;2023-01-29T13:28:46;101999.25;;;4.74;100.00
62791;BME280;48830;53.426;10.300;2023-01-29T13:33:39;102016.53;;;4.65;100.00
62791;BME280;48830;53.426;10.300;2023-01-29T13:36:13;102009.78;;;4.80;100.00
62791;BME280;48830;53.426;10.300;2023-01-29T13:38:41;102007.03;;;4.77;100.00
62791;BME280;48830;53.426;10.300;2023-01-29T13:41:09;101993.88;;;4.69;100.00
62791;BME280;48830;53.426;10.300;2023-01-29T13:43:37;101997.38;;;4.71;100.00
62791;BME280;48830;53.426;10.300;2023-01-29T13:46:10;101991.31;;;4.84;100.00
62791;BME280;48830;53.426;10.300;2023-01-29T13:48:41;101997.47;;;4.73;100.00
62791;BME280;48830;53.426;10.300;2023-01-29T13:51:13;101991.97;;;4.80;100.00
62791;BME280;48830;53.426;10.300;2023-01-29T13:53:56;101983.84;;;4.72;100.00
62791;BME280;48830;53.426;10.300;2023-01-29T13:59:01;101973.31;;;4.66;100.00
62791;BME280;48830;53.426;10.300;2023-01-29T14:04:25;101969.81;;;4.79;100.00
62791;BME280;48830;53.426;10.300;2023-01-29T14:06:54;101978.44;;;4.81;100.00
62791;BME280;48830;53.426;10.300;2023-01-29T14:11:58;101961.81;;;4.73;100.00
62791;BME280;48830;53.426;10.300;2023-01-29T14:17:24;101953.72;;;4.65;100.00
62791;BME280;48830;53.426;10.300;2023-01-29T14:20:13;101951.47;;;4.70;100.00
62791;BME280;48830;53.426;10.300;2023-01-29T14:22:41;101949.53;;;4.66;100.00
62791;BME280;48830;53.426;10.300;2023-01-29T14:25:16;101937.22;;;4.59;100.00
62791;BME280;48830;53.426;10.300;2023-01-29T14:27:47;101940.91;;;4.64;100.00
62791;BME280;48830;53.426;10.300;2023-01-29T14:30:16;101934.16;;;4.64;100.00
62791;BME280;48830;53.426;10.300;2023-01-29T14:32:47;101927.66;;;4.55;100.00
62791;BME280;48830;53.426;10.300;2023-01-29T14:35:21;101935.56;;;4.59;100.00
62791;BME280;48830;53.426;10.300;2023-01-29T14:37:55;101922.28;;;4.50;100.00
62791;BME280;48830;53.426;10.300;2023-01-29T14:40:24;101931.56;;;4.35;100.00
62791;BME280;48830;53.426;10.300;2023-01-29T14:43:14;101933.44;;;4.37;100.00
62791;BME280;48830;53.426;10.300;2023-01-29T14:45:45;101918.31;;;4.40;100.00
62791;BME280;48830;53.426;10.300;2023-01-29T14:53:27;101912.16;;;4.22;100.00